Port Byron, New York
Current Conditions -  °F | °C
As of 6:54 PM on Thursday 27 Nov 2014 (Local Time) from KFZY Reporting Station
Overcast Overcast  
Wind Chill: 25°   Ceiling: 3900
Heat Index: 30°   Visibility: 9mi
Dew Point: 27°   Wind: 5mph
Humidity: 88%   Direction: 210°SSW
Pressure: 30.05"   Gusts: NA
Location:  43.03°N, 76.62°W
Report Text: KFZY 272354Z AUTO 21004KT 9SM FEW007 BKN039 OVC048 M01/M03 A3005 RMK AO2 SNE52 SLP181 P0000 60007 T10111028 11011 21017 51001
Loading
Personal Weather Stations






























Interactive Weather Map New forecast layout! Learn more

10-Day Weather Forecast

Advertisements
Track Severe Weather on mobile